KTNU/TNU METAR and TAF weather

Enter ICAO airport designator
Station Type Date Time Source
KTNU METAR 2019/12/09 05:55 UTC NOAA

KTNU 090555Z AUTO 07005KT 10SM FEW012 OVC028 05/04 A2963 RMK A01


Station Type Date Time Source
KTNU Decoded METAR 2019/12/09 05:55 UTC NOAA

Newton Municipal, IA, United States (KTNU) 41-41N 093-01W
Dec 09, 2019 - 12:55 AM EST / 2019.12.09 0555 UTC
Wind: from the ENE (070 degrees) at 6 MPH (5 KT):0
Visibility: 10 mile(s):0
Sky conditions: overcast
Temperature: 41 F (5 C)
Dew Point: 39 F (4 C)
Relative Humidity: 93%
Pressure (altimeter): 29.63 in. Hg (1003 hPa)
ob: KTNU 090555Z AUTO 07005KT 10SM FEW012 OVC028 05/04 A2963 RMK A01
cycle: 6

Station Type Date Time Source
KTNU TAF UTC NOAA

Error!

Example: see airport list